sensor_id;sensor_type;location;lat;lon;timestamp;pressure;altitude;pressure_sealevel;temperature;humidity
68476;BME280;55464;48.266;14.188;2023-04-01T00:01:34;96447.59;;;9.13;71.32
68476;BME280;55464;48.266;14.188;2023-04-01T00:03:59;96449.56;;;9.13;71.22
68476;BME280;55464;48.266;14.188;2023-04-01T00:06:27;96454.31;;;9.16;70.05
68476;BME280;55464;48.266;14.188;2023-04-01T00:08:53;96460.59;;;9.16;70.83
68476;BME280;55464;48.266;14.188;2023-04-01T00:11:18;96461.78;;;9.15;70.95
68476;BME280;55464;48.266;14.188;2023-04-01T00:13:45;96466.09;;;9.16;72.12
68476;BME280;55464;48.266;14.188;2023-04-01T00:16:11;96455.41;;;9.11;72.19
68476;BME280;55464;48.266;14.188;2023-04-01T00:18:36;96466.03;;;9.13;72.52
68476;BME280;55464;48.266;14.188;2023-04-01T00:21:02;96464.03;;;9.09;72.85
68476;BME280;55464;48.266;14.188;2023-04-01T00:23:27;96469.09;;;9.07;72.88
68476;BME280;55464;48.266;14.188;2023-04-01T00:25:53;96460.44;;;9.05;72.77
68476;BME280;55464;48.266;14.188;2023-04-01T00:28:19;96459.66;;;9.05;72.56
68476;BME280;55464;48.266;14.188;2023-04-01T00:30:45;96458.41;;;9.02;72.12
68476;BME280;55464;48.266;14.188;2023-04-01T00:33:11;96458.78;;;9.01;71.30
68476;BME280;55464;48.266;14.188;2023-04-01T00:35:37;96460.38;;;9.02;71.18
68476;BME280;55464;48.266;14.188;2023-04-01T00:38:03;96464.72;;;9.03;70.85
68476;BME280;55464;48.266;14.188;2023-04-01T00:40:39;96461.16;;;9.02;70.94
68476;BME280;55464;48.266;14.188;2023-04-01T00:43:31;96465.09;;;9.01;70.21
68476;BME280;55464;48.266;14.188;2023-04-01T00:45:57;96465.09;;;9.01;70.02
68476;BME280;55464;48.266;14.188;2023-04-01T00:48:29;96469.88;;;9.08;70.05
68476;BME280;55464;48.266;14.188;2023-04-01T00:51:07;96473.75;;;9.03;69.42
68476;BME280;55464;48.266;14.188;2023-04-01T00:53:38;96481.22;;;9.03;68.28
68476;BME280;55464;48.266;14.188;2023-04-01T00:56:17;96483.63;;;9.08;68.96
68476;BME280;55464;48.266;14.188;2023-04-01T00:58:50;96483.22;;;9.06;69.33
68476;BME280;55464;48.266;14.188;2023-04-01T01:01:17;96474.59;;;9.07;69.47
68476;BME280;55464;48.266;14.188;2023-04-01T01:03:42;96471.06;;;9.07;69.68
68476;BME280;55464;48.266;14.188;2023-04-01T01:06:29;96471.00;;;9.03;70.03
68476;BME280;55464;48.266;14.188;2023-04-01T01:11:47;96470.94;;;9.00;70.46
68476;BME280;55464;48.266;14.188;2023-04-01T01:20:24;96470.13;;;8.99;71.29
68476;BME280;55464;48.266;14.188;2023-04-01T01:32:23;96464.22;;;8.97;71.93
68476;BME280;55464;48.266;14.188;2023-04-01T01:37:40;96455.19;;;8.97;71.96
68476;BME280;55464;48.266;14.188;2023-04-01T01:40:09;96450.06;;;8.95;71.87
68476;BME280;55464;48.266;14.188;2023-04-01T01:42:38;96448.66;;;9.05;70.62
68476;BME280;55464;48.266;14.188;2023-04-01T01:45:06;96465.38;;;8.96;70.14
68476;BME280;55464;48.266;14.188;2023-04-01T01:47:35;96452.72;;;8.92;69.72
68476;BME280;55464;48.266;14.188;2023-04-01T01:50:02;96450.34;;;8.90;70.11
68476;BME280;55464;48.266;14.188;2023-04-01T01:52:28;96455.06;;;8.89;69.90
68476;BME280;55464;48.266;14.188;2023-04-01T01:54:56;96445.66;;;8.91;70.00
68476;BME280;55464;48.266;14.188;2023-04-01T01:57:26;96443.41;;;8.96;69.53
68476;BME280;55464;48.266;14.188;2023-04-01T01:59:56;96452.78;;;8.95;69.44
68476;BME280;55464;48.266;14.188;2023-04-01T02:02:24;96444.91;;;8.94;69.43
68476;BME280;55464;48.266;14.188;2023-04-01T02:04:51;96445.72;;;8.94;68.89
68476;BME280;55464;48.266;14.188;2023-04-01T02:07:25;96448.47;;;8.94;69.15
68476;BME280;55464;48.266;14.188;2023-04-01T02:09:52;96445.66;;;8.91;69.61
68476;BME280;55464;48.266;14.188;2023-04-01T02:12:19;96450.00;;;8.92;69.65
68476;BME280;55464;48.266;14.188;2023-04-01T02:14:54;96453.16;;;8.94;69.38
68476;BME280;55464;48.266;14.188;2023-04-01T02:17:24;96448.03;;;8.92;69.16
68476;BME280;55464;48.266;14.188;2023-04-01T02:20:00;96452.31;;;8.89;69.74
68476;BME280;55464;48.266;14.188;2023-04-01T02:22:28;96453.97;;;8.94;69.89
68476;BME280;55464;48.266;14.188;2023-04-01T02:24:58;96457.56;;;8.98;68.94
68476;BME280;55464;48.266;14.188;2023-04-01T02:27:25;96458.66;;;8.94;69.45
68476;BME280;55464;48.266;14.188;2023-04-01T02:29:51;96455.53;;;8.95;69.65
68476;BME280;55464;48.266;14.188;2023-04-01T02:32:19;96454.28;;;8.89;69.61
68476;BME280;55464;48.266;14.188;2023-04-01T02:34:46;96451.91;;;8.87;69.67
68476;BME280;55464;48.266;14.188;2023-04-01T02:37:13;96456.56;;;8.87;69.64
68476;BME280;55464;48.266;14.188;2023-04-01T02:39:39;96457.44;;;8.91;69.54
68476;BME280;55464;48.266;14.188;2023-04-01T02:42:05;96456.22;;;8.88;70.00
68476;BME280;55464;48.266;14.188;2023-04-01T02:44:30;96455.44;;;8.88;70.29
68476;BME280;55464;48.266;14.188;2023-04-01T02:46:56;96452.31;;;8.89;70.45
68476;BME280;55464;48.266;14.188;2023-04-01T02:49:21;96454.34;;;8.93;70.26
68476;BME280;55464;48.266;14.188;2023-04-01T02:51:47;96462.53;;;8.89;70.51
68476;BME280;55464;48.266;14.188;2023-04-01T02:54:12;96453.81;;;8.87;70.09
68476;BME280;55464;48.266;14.188;2023-04-01T02:56:37;96447.41;;;8.79;70.55
68476;BME280;55464;48.266;14.188;2023-04-01T02:59:03;96456.16;;;8.85;70.78
68476;BME280;55464;48.266;14.188;2023-04-01T03:01:28;96457.69;;;8.82;71.16
68476;BME280;55464;48.266;14.188;2023-04-01T03:03:54;96451.00;;;8.83;71.25
68476;BME280;55464;48.266;14.188;2023-04-01T03:06:19;96448.28;;;8.83;70.98
68476;BME280;55464;48.266;14.188;2023-04-01T03:08:45;96451.41;;;8.82;70.62
68476;BME280;55464;48.266;14.188;2023-04-01T03:11:11;96442.66;;;8.76;70.14
68476;BME280;55464;48.266;14.188;2023-04-01T03:13:37;96451.78;;;8.80;70.16
68476;BME280;55464;48.266;14.188;2023-04-01T03:16:02;96463.19;;;8.82;69.73
68476;BME280;55464;48.266;14.188;2023-04-01T03:18:28;96464.31;;;8.81;70.04
68476;BME280;55464;48.266;14.188;2023-04-01T03:20:53;96483.56;;;8.81;70.33
68476;BME280;55464;48.266;14.188;2023-04-01T03:23:19;96465.88;;;8.79;71.21
68476;BME280;55464;48.266;14.188;2023-04-01T03:25:46;96453.63;;;8.76;71.59
68476;BME280;55464;48.266;14.188;2023-04-01T03:28:12;96460.72;;;8.77;72.08
68476;BME280;55464;48.266;14.188;2023-04-01T03:30:38;96459.44;;;8.71;72.02
68476;BME280;55464;48.266;14.188;2023-04-01T03:33:03;96469.34;;;8.76;72.39
68476;BME280;55464;48.266;14.188;2023-04-01T03:35:29;96470.47;;;8.75;72.36
68476;BME280;55464;48.266;14.188;2023-04-01T03:37:55;96473.16;;;8.71;72.39
68476;BME280;55464;48.266;14.188;2023-04-01T03:40:21;96480.63;;;8.70;71.90
68476;BME280;55464;48.266;14.188;2023-04-01T03:42:47;96489.59;;;8.67;71.78
68476;BME280;55464;48.266;14.188;2023-04-01T03:45:12;96492.31;;;8.67;72.11
68476;BME280;55464;48.266;14.188;2023-04-01T03:47:38;96486.47;;;8.69;72.24
68476;BME280;55464;48.266;14.188;2023-04-01T03:50:05;96488.06;;;8.70;72.12
68476;BME280;55464;48.266;14.188;2023-04-01T03:52:31;96487.72;;;8.72;72.04
68476;BME280;55464;48.266;14.188;2023-04-01T03:54:56;96490.88;;;8.74;72.13
68476;BME280;55464;48.266;14.188;2023-04-01T03:57:22;96489.72;;;8.75;71.74
68476;BME280;55464;48.266;14.188;2023-04-01T03:59:47;96491.25;;;8.72;71.50
68476;BME280;55464;48.266;14.188;2023-04-01T04:02:12;96486.53;;;8.73;71.54
68476;BME280;55464;48.266;14.188;2023-04-01T04:04:38;96491.97;;;8.69;71.51
68476;BME280;55464;48.266;14.188;2023-04-01T04:07:03;96495.13;;;8.71;71.67
68476;BME280;55464;48.266;14.188;2023-04-01T04:09:30;96497.94;;;8.75;71.79
68476;BME280;55464;48.266;14.188;2023-04-01T04:11:56;96498.25;;;8.69;71.78
68476;BME280;55464;48.266;14.188;2023-04-01T04:14:22;96505.78;;;8.73;71.52
68476;BME280;55464;48.266;14.188;2023-04-01T04:16:48;96504.19;;;8.72;71.83
68476;BME280;55464;48.266;14.188;2023-04-01T04:19:13;96509.34;;;8.73;71.71
68476;BME280;55464;48.266;14.188;2023-04-01T04:21:40;96512.44;;;8.72;71.77
68476;BME280;55464;48.266;14.188;2023-04-01T04:24:06;96510.41;;;8.68;71.84
68476;BME280;55464;48.266;14.188;2023-04-01T04:26:31;96510.13;;;8.74;71.99
68476;BME280;55464;48.266;14.188;2023-04-01T04:28:57;96508.94;;;8.75;72.22
68476;BME280;55464;48.266;14.188;2023-04-01T04:31:24;96511.69;;;8.75;72.19
68476;BME280;55464;48.266;14.188;2023-04-01T04:33:50;96510.53;;;8.76;71.86
68476;BME280;55464;48.266;14.188;2023-04-01T04:36:17;96513.28;;;8.76;71.77
68476;BME280;55464;48.266;14.188;2023-04-01T04:38:42;96515.38;;;8.82;71.19
68476;BME280;55464;48.266;14.188;2023-04-01T04:41:09;96510.97;;;8.78;71.74
68476;BME280;55464;48.266;14.188;2023-04-01T04:43:35;96514.88;;;8.77;71.51
68476;BME280;55464;48.266;14.188;2023-04-01T04:46:05;96522.69;;;8.75;71.53
68476;BME280;55464;48.266;14.188;2023-04-01T04:48:30;96518.28;;;8.70;71.67
68476;BME280;55464;48.266;14.188;2023-04-01T04:50:56;96522.53;;;8.67;71.64
68476;BME280;55464;48.266;14.188;2023-04-01T04:53:21;96524.06;;;8.65;71.72
68476;BME280;55464;48.266;14.188;2023-04-01T04:55:48;96524.06;;;8.65;71.43
68476;BME280;55464;48.266;14.188;2023-04-01T04:58:14;96517.03;;;8.67;71.62
68476;BME280;55464;48.266;14.188;2023-04-01T05:00:40;96509.97;;;8.66;71.52
68476;BME280;55464;48.266;14.188;2023-04-01T05:03:05;96504.91;;;8.68;71.52
68476;BME280;55464;48.266;14.188;2023-04-01T05:05:31;96515.47;;;8.66;71.34
68476;BME280;55464;48.266;14.188;2023-04-01T05:07:56;96513.09;;;8.65;71.21
68476;BME280;55464;48.266;14.188;2023-04-01T05:10:22;96502.41;;;8.60;71.38
68476;BME280;55464;48.266;14.188;2023-04-01T05:12:47;96509.91;;;8.63;71.32
68476;BME280;55464;48.266;14.188;2023-04-01T05:15:13;96509.22;;;8.69;70.58
68476;BME280;55464;48.266;14.188;2023-04-01T05:17:39;96516.41;;;8.74;70.59
68476;BME280;55464;48.266;14.188;2023-04-01T05:20:05;96516.41;;;8.74;70.32
68476;BME280;55464;48.266;14.188;2023-04-01T05:22:30;96521.75;;;8.67;70.70
68476;BME280;55464;48.266;14.188;2023-04-01T05:24:56;96537.03;;;8.64;70.95
68476;BME280;55464;48.266;14.188;2023-04-01T05:27:21;96518.28;;;8.70;70.82
68476;BME280;55464;48.266;14.188;2023-04-01T05:29:47;96519.06;;;8.70;70.92
68476;BME280;55464;48.266;14.188;2023-04-01T05:32:12;96525.81;;;8.73;70.74
68476;BME280;55464;48.266;14.188;2023-04-01T05:34:37;96538.50;;;8.81;70.01
68476;BME280;55464;48.266;14.188;2023-04-01T05:37:03;96528.56;;;8.73;70.04
68476;BME280;55464;48.266;14.188;2023-04-01T05:39:28;96539.91;;;8.72;70.50
68476;BME280;55464;48.266;14.188;2023-04-01T05:41:54;96530.44;;;8.69;70.63
68476;BME280;55464;48.266;14.188;2023-04-01T05:44:20;96541.53;;;8.76;70.23
68476;BME280;55464;48.266;14.188;2023-04-01T05:46:46;96536.94;;;8.80;70.56
68476;BME280;55464;48.266;14.188;2023-04-01T05:49:11;96538.16;;;8.83;70.46
68476;BME280;55464;48.266;14.188;2023-04-01T05:51:36;96542.38;;;8.77;71.44
68476;BME280;55464;48.266;14.188;2023-04-01T05:54:04;96552.09;;;8.74;72.04
68476;BME280;55464;48.266;14.188;2023-04-01T05:56:29;96547.34;;;8.71;73.08
68476;BME280;55464;48.266;14.188;2023-04-01T05:58:55;96547.41;;;8.75;73.39
68476;BME280;55464;48.266;14.188;2023-04-01T06:01:20;96543.66;;;8.63;74.06
68476;BME280;55464;48.266;14.188;2023-04-01T06:03:46;96543.66;;;8.63;74.33
68476;BME280;55464;48.266;14.188;2023-04-01T06:06:15;96542.06;;;8.62;74.07
68476;BME280;55464;48.266;14.188;2023-04-01T06:08:41;96545.19;;;8.61;74.62
68476;BME280;55464;48.266;14.188;2023-04-01T06:30:43;96550.06;;;8.71;74.03
68476;BME280;55464;48.266;14.188;2023-04-01T06:49:10;96549.69;;;8.92;75.07
68476;BME280;55464;48.266;14.188;2023-04-01T06:57:03;96549.22;;;9.09;75.66
68476;BME280;55464;48.266;14.188;2023-04-01T06:59:33;96555.19;;;9.12;74.90
68476;BME280;55464;48.266;14.188;2023-04-01T07:02:20;96553.22;;;9.12;74.35
68476;BME280;55464;48.266;14.188;2023-04-01T07:04:51;96559.63;;;9.20;74.32
68476;BME280;55464;48.266;14.188;2023-04-01T07:10:05;96551.81;;;9.22;74.35
68476;BME280;55464;48.266;14.188;2023-04-01T07:14:58;96556.66;;;9.28;73.60
68476;BME280;55464;48.266;14.188;2023-04-01T07:17:30;96561.06;;;9.33;73.39
68476;BME280;55464;48.266;14.188;2023-04-01T07:20:05;96566.25;;;9.38;71.21
68476;BME280;55464;48.266;14.188;2023-04-01T07:22:40;96565.06;;;9.39;70.46
68476;BME280;55464;48.266;14.188;2023-04-01T07:27:38;96563.97;;;9.44;69.20
68476;BME280;55464;48.266;14.188;2023-04-01T07:30:52;96573.78;;;9.41;69.76
68476;BME280;55464;48.266;14.188;2023-04-01T07:33:43;96566.69;;;9.40;69.45
68476;BME280;55464;48.266;14.188;2023-04-01T07:50:11;96594.28;;;9.48;69.52
68476;BME280;55464;48.266;14.188;2023-04-01T07:58:31;96577.59;;;9.60;67.96
68476;BME280;55464;48.266;14.188;2023-04-01T08:06:37;96573.34;;;9.62;68.07
68476;BME280;55464;48.266;14.188;2023-04-01T08:09:19;96580.41;;;9.63;68.68
68476;BME280;55464;48.266;14.188;2023-04-01T08:15:09;96581.75;;;9.73;67.71
68476;BME280;55464;48.266;14.188;2023-04-01T08:17:39;96570.41;;;9.75;67.75
68476;BME280;55464;48.266;14.188;2023-04-01T08:22:56;96581.88;;;9.80;67.04
68476;BME280;55464;48.266;14.188;2023-04-01T08:25:26;96564.56;;;9.80;67.19
68476;BME280;55464;48.266;14.188;2023-04-01T08:28:13;96570.13;;;9.83;67.54
68476;BME280;55464;48.266;14.188;2023-04-01T08:30:49;96570.25;;;9.91;67.37
68476;BME280;55464;48.266;14.188;2023-04-01T08:33:27;96556.22;;;9.99;66.25
68476;BME280;55464;48.266;14.188;2023-04-01T08:38:32;96556.31;;;10.07;67.04
68476;BME280;55464;48.266;14.188;2023-04-01T08:43:51;96563.81;;;10.10;66.60
68476;BME280;55464;48.266;14.188;2023-04-01T09:00:52;96571.25;;;10.32;66.27
68476;BME280;55464;48.266;14.188;2023-04-01T09:03:44;96569.00;;;10.38;65.87
68476;BME280;55464;48.266;14.188;2023-04-01T09:06:34;96559.53;;;10.39;64.34
68476;BME280;55464;48.266;14.188;2023-04-01T09:12:14;96583.00;;;10.56;64.53
68476;BME280;55464;48.266;14.188;2023-04-01T09:34:31;96574.44;;;10.65;63.59
68476;BME280;55464;48.266;14.188;2023-04-01T09:40:13;96579.91;;;10.61;63.07
68476;BME280;55464;48.266;14.188;2023-04-01T09:48:15;96570.47;;;10.62;62.49
68476;BME280;55464;48.266;14.188;2023-04-01T09:50:50;96570.41;;;10.58;63.43
68476;BME280;55464;48.266;14.188;2023-04-01T09:53:40;96563.75;;;10.59;63.12
68476;BME280;55464;48.266;14.188;2023-04-01T09:56:18;96564.91;;;10.58;63.24
68476;BME280;55464;48.266;14.188;2023-04-01T10:10:15;96562.28;;;10.69;62.66
68476;BME280;55464;48.266;14.188;2023-04-01T10:21:33;96563.97;;;10.77;63.10
68476;BME280;55464;48.266;14.188;2023-04-01T10:24:24;96561.66;;;10.83;62.68
68476;BME280;55464;48.266;14.188;2023-04-01T10:29:50;96564.06;;;10.88;63.37
68476;BME280;55464;48.266;14.188;2023-04-01T10:32:46;96553.88;;;10.89;62.34
68476;BME280;55464;48.266;14.188;2023-04-01T10:54:43;96536.75;;;11.10;61.92
68476;BME280;55464;48.266;14.188;2023-04-01T11:00:10;96540.38;;;11.18;61.37
68476;BME280;55464;48.266;14.188;2023-04-01T11:28:10;96524.00;;;11.39;59.52
68476;BME280;55464;48.266;14.188;2023-04-01T11:30:49;96522.47;;;11.42;59.18
68476;BME280;55464;48.266;14.188;2023-04-01T11:33:25;96522.88;;;11.44;59.37
68476;BME280;55464;48.266;14.188;2023-04-01T11:39:11;96522.56;;;11.52;59.24
68476;BME280;55464;48.266;14.188;2023-04-01T11:44:18;96502.47;;;11.52;59.40
68476;BME280;55464;48.266;14.188;2023-04-01T12:00:25;96498.06;;;11.96;58.38
68476;BME280;55464;48.266;14.188;2023-04-01T12:25:07;96481.97;;;12.08;58.56
68476;BME280;55464;48.266;14.188;2023-04-01T12:28:10;96491.81;;;12.09;58.20
68476;BME280;55464;48.266;14.188;2023-04-01T12:50:19;96536.19;;;11.83;67.25
68476;BME280;55464;48.266;14.188;2023-04-01T12:55:36;96556.06;;;11.51;70.61
68476;BME280;55464;48.266;14.188;2023-04-01T13:03:28;96522.31;;;11.24;72.55
68476;BME280;55464;48.266;14.188;2023-04-01T13:14:21;96522.44;;;11.38;73.24
68476;BME280;55464;48.266;14.188;2023-04-01T13:16:53;96516.16;;;11.41;72.22
68476;BME280;55464;48.266;14.188;2023-04-01T13:19:35;96519.75;;;11.45;71.17
68476;BME280;55464;48.266;14.188;2023-04-01T13:22:11;96519.41;;;11.50;69.57
68476;BME280;55464;48.266;14.188;2023-04-01T13:27:38;96519.00;;;11.48;70.03
68476;BME280;55464;48.266;14.188;2023-04-01T13:43:52;96519.78;;;12.01;67.88
68476;BME280;55464;48.266;14.188;2023-04-01T13:49:26;96532.63;;;12.38;67.91
68476;BME280;55464;48.266;14.188;2023-04-01T13:52:10;96523.56;;;12.48;67.18
68476;BME280;55464;48.266;14.188;2023-04-01T13:55:02;96535.50;;;12.63;66.67
68476;BME280;55464;48.266;14.188;2023-04-01T14:19:41;96553.38;;;12.06;64.51
68476;BME280;55464;48.266;14.188;2023-04-01T14:28:18;96570.50;;;11.82;66.11
68476;BME280;55464;48.266;14.188;2023-04-01T14:33:57;96570.47;;;11.75;66.67
68476;BME280;55464;48.266;14.188;2023-04-01T14:36:37;96574.06;;;11.82;66.64
68476;BME280;55464;48.266;14.188;2023-04-01T14:39:43;96584.63;;;11.73;66.06
68476;BME280;55464;48.266;14.188;2023-04-01T14:42:28;96588.91;;;11.67;66.34
68476;BME280;55464;48.266;14.188;2023-04-01T14:47:43;96578.19;;;11.58;66.87
68476;BME280;55464;48.266;14.188;2023-04-01T14:50:18;96572.56;;;11.47;67.34
68476;BME280;55464;48.266;14.188;2023-04-01T14:55:48;96567.75;;;11.37;66.64
68476;BME280;55464;48.266;14.188;2023-04-01T14:58:18;96581.53;;;11.37;66.59
68476;BME280;55464;48.266;14.188;2023-04-01T15:03:52;96586.72;;;11.42;67.31
68476;BME280;55464;48.266;14.188;2023-04-01T15:06:52;96553.09;;;11.29;67.26
68476;BME280;55464;48.266;14.188;2023-04-01T15:09:27;96592.63;;;11.44;66.58
68476;BME280;55464;48.266;14.188;2023-04-01T15:12:22;96595.28;;;11.33;66.71
68476;BME280;55464;48.266;14.188;2023-04-01T15:20:33;96602.91;;;11.06;66.65
68476;BME280;55464;48.266;14.188;2023-04-01T15:28:37;96619.53;;;11.13;67.42
68476;BME280;55464;48.266;14.188;2023-04-01T15:31:29;96606.47;;;11.10;67.34
68476;BME280;55464;48.266;14.188;2023-04-01T15:39:17;96610.34;;;11.06;66.80
68476;BME280;55464;48.266;14.188;2023-04-01T15:44:44;96617.06;;;11.05;64.56
68476;BME280;55464;48.266;14.188;2023-04-01T15:49:56;96642.63;;;11.02;65.55
68476;BME280;55464;48.266;14.188;2023-04-01T15:57:56;96631.13;;;10.96;65.15
68476;BME280;55464;48.266;14.188;2023-04-01T16:00:30;96626.41;;;10.96;65.15
68476;BME280;55464;48.266;14.188;2023-04-01T16:11:04;96645.44;;;10.75;66.02
68476;BME280;55464;48.266;14.188;2023-04-01T16:19:27;96638.22;;;10.67;66.16
68476;BME280;55464;48.266;14.188;2023-04-01T16:24:44;96660.13;;;10.56;66.32
68476;BME280;55464;48.266;14.188;2023-04-01T16:27:16;96669.91;;;10.53;66.92
68476;BME280;55464;48.266;14.188;2023-04-01T16:29:55;96661.19;;;10.48;68.08
68476;BME280;55464;48.266;14.188;2023-04-01T16:32:44;96671.69;;;10.38;68.10
68476;BME280;55464;48.266;14.188;2023-04-01T16:37:53;96677.56;;;10.37;68.42
68476;BME280;55464;48.266;14.188;2023-04-01T16:43:13;96677.13;;;10.35;68.38
68476;BME280;55464;48.266;14.188;2023-04-01T16:45:53;96681.75;;;10.31;68.10
68476;BME280;55464;48.266;14.188;2023-04-01T16:48:27;96687.44;;;10.18;68.24
68476;BME280;55464;48.266;14.188;2023-04-01T16:51:04;96684.78;;;10.22;68.28
68476;BME280;55464;48.266;14.188;2023-04-01T16:53:46;96692.59;;;10.20;68.70
68476;BME280;55464;48.266;14.188;2023-04-01T16:56:20;96694.16;;;10.17;68.07
68476;BME280;55464;48.266;14.188;2023-04-01T16:59:02;96695.66;;;10.15;68.29
68476;BME280;55464;48.266;14.188;2023-04-01T17:12:31;96703.69;;;10.00;69.04
68476;BME280;55464;48.266;14.188;2023-04-01T17:15:13;96703.75;;;10.04;69.42
68476;BME280;55464;48.266;14.188;2023-04-01T17:21:16;96705.53;;;9.93;70.31
68476;BME280;55464;48.266;14.188;2023-04-01T17:42:55;96728.88;;;9.79;71.05
68476;BME280;55464;48.266;14.188;2023-04-01T17:48:24;96724.53;;;9.78;71.11
68476;BME280;55464;48.266;14.188;2023-04-01T17:54:04;96725.75;;;9.81;70.90
68476;BME280;55464;48.266;14.188;2023-04-01T17:59:35;96729.97;;;9.75;70.94
68476;BME280;55464;48.266;14.188;2023-04-01T18:02:21;96729.03;;;9.67;71.17
68476;BME280;55464;48.266;14.188;2023-04-01T18:19:46;96744.81;;;9.70;70.96
68476;BME280;55464;48.266;14.188;2023-04-01T18:24:58;96744.81;;;9.70;70.74
68476;BME280;55464;48.266;14.188;2023-04-01T18:27:56;96754.28;;;9.73;71.00
68476;BME280;55464;48.266;14.188;2023-04-01T18:30:28;96759.00;;;9.72;70.68
68476;BME280;55464;48.266;14.188;2023-04-01T18:33:34;96757.50;;;9.75;70.61
68476;BME280;55464;48.266;14.188;2023-04-01T18:45:01;96765.00;;;9.78;70.81
68476;BME280;55464;48.266;14.188;2023-04-01T18:47:55;96766.59;;;9.79;71.05
68476;BME280;55464;48.266;14.188;2023-04-01T18:50:28;96770.94;;;9.80;70.60
68476;BME280;55464;48.266;14.188;2023-04-01T18:55:52;96763.91;;;9.82;70.47
68476;BME280;55464;48.266;14.188;2023-04-01T18:58:28;96772.91;;;9.79;70.54
68476;BME280;55464;48.266;14.188;2023-04-01T19:06:24;96778.03;;;9.81;70.80
68476;BME280;55464;48.266;14.188;2023-04-01T19:08:52;96781.50;;;9.78;70.54
68476;BME280;55464;48.266;14.188;2023-04-01T19:11:33;96776.81;;;9.78;70.63
68476;BME280;55464;48.266;14.188;2023-04-01T19:19:55;96790.59;;;9.78;70.16
68476;BME280;55464;48.266;14.188;2023-04-01T19:25:30;96794.97;;;9.83;70.17
68476;BME280;55464;48.266;14.188;2023-04-01T19:28:19;96792.59;;;9.81;70.44
68476;BME280;55464;48.266;14.188;2023-04-01T19:30:57;96797.38;;;9.84;70.37
68476;BME280;55464;48.266;14.188;2023-04-01T19:38:54;96794.25;;;9.86;70.78
68476;BME280;55464;48.266;14.188;2023-04-01T19:41:40;96796.66;;;9.88;70.76
68476;BME280;55464;48.266;14.188;2023-04-01T19:46:57;96787.16;;;9.85;71.26
68476;BME280;55464;48.266;14.188;2023-04-01T20:00:31;96804.78;;;9.80;71.89
68476;BME280;55464;48.266;14.188;2023-04-01T20:03:03;96806.63;;;9.76;72.21
68476;BME280;55464;48.266;14.188;2023-04-01T20:05:57;96813.38;;;9.79;72.25
68476;BME280;55464;48.266;14.188;2023-04-01T20:16:16;96811.44;;;9.79;72.32
68476;BME280;55464;48.266;14.188;2023-04-01T20:18:57;96811.44;;;9.79;72.51
68476;BME280;55464;48.266;14.188;2023-04-01T20:21:34;96810.28;;;9.80;72.43
68476;BME280;55464;48.266;14.188;2023-04-01T20:24:16;96816.56;;;9.81;72.41
68476;BME280;55464;48.266;14.188;2023-04-01T20:26:54;96816.56;;;9.81;72.31
68476;BME280;55464;48.266;14.188;2023-04-01T20:29:36;96819.69;;;9.79;72.20
68476;BME280;55464;48.266;14.188;2023-04-01T20:32:16;96821.28;;;9.80;72.29
68476;BME280;55464;48.266;14.188;2023-04-01T20:35:14;96824.47;;;9.82;72.04
68476;BME280;55464;48.266;14.188;2023-04-01T20:40:51;96824.31;;;9.75;71.66
68476;BME280;55464;48.266;14.188;2023-04-01T20:43:46;96827.44;;;9.74;71.61
68476;BME280;55464;48.266;14.188;2023-04-01T20:51:45;96830.19;;;9.74;71.08
68476;BME280;55464;48.266;14.188;2023-04-01T20:57:24;96821.56;;;9.75;70.76
68476;BME280;55464;48.266;14.188;2023-04-01T21:03:26;96841.97;;;9.74;70.33
68476;BME280;55464;48.266;14.188;2023-04-01T21:13:57;96843.16;;;9.73;70.22
68476;BME280;55464;48.266;14.188;2023-04-01T21:19:16;96831.34;;;9.73;70.33
68476;BME280;55464;48.266;14.188;2023-04-01T21:22:04;96851.06;;;9.75;70.40
68476;BME280;55464;48.266;14.188;2023-04-01T21:24:43;96844.75;;;9.74;70.74
68476;BME280;55464;48.266;14.188;2023-04-01T21:30:16;96852.63;;;9.76;70.89
68476;BME280;55464;48.266;14.188;2023-04-01T22:01:03;96870.31;;;9.75;71.66
68476;BME280;55464;48.266;14.188;2023-04-01T22:14:09;96867.19;;;9.76;71.80
68476;BME280;55464;48.266;14.188;2023-04-01T22:16:44;96870.31;;;9.75;71.69
68476;BME280;55464;48.266;14.188;2023-04-01T22:19:15;96869.16;;;9.76;72.12
68476;BME280;55464;48.266;14.188;2023-04-01T22:21:55;96875.81;;;9.75;72.14
68476;BME280;55464;48.266;14.188;2023-04-01T22:30:06;96884.34;;;9.70;71.03
68476;BME280;55464;48.266;14.188;2023-04-01T22:32:38;96877.59;;;9.67;70.91
68476;BME280;55464;48.266;14.188;2023-04-01T22:43:25;96874.91;;;9.51;69.84
68476;BME280;55464;48.266;14.188;2023-04-01T22:51:24;96889.47;;;9.52;69.94
68476;BME280;55464;48.266;14.188;2023-04-01T22:54:32;96893.75;;;9.49;70.10
68476;BME280;55464;48.266;14.188;2023-04-01T22:57:02;96889.22;;;9.41;70.45
68476;BME280;55464;48.266;14.188;2023-04-01T22:59:40;96891.63;;;9.42;70.45
68476;BME280;55464;48.266;14.188;2023-04-01T23:02:17;96888.94;;;9.46;70.80
68476;BME280;55464;48.266;14.188;2023-04-01T23:04:48;96894.44;;;9.46;71.09
68476;BME280;55464;48.266;14.188;2023-04-01T23:09:56;96894.66;;;9.37;71.86
68476;BME280;55464;48.266;14.188;2023-04-01T23:12:25;96895.00;;;9.36;72.21
68476;BME280;55464;48.266;14.188;2023-04-01T23:15:01;96899.78;;;9.39;71.89
68476;BME280;55464;48.266;14.188;2023-04-01T23:20:14;96907.88;;;9.32;72.31
68476;BME280;55464;48.266;14.188;2023-04-01T23:22:54;96907.00;;;9.27;72.27
68476;BME280;55464;48.266;14.188;2023-04-01T23:25:43;96907.44;;;9.30;72.28
68476;BME280;55464;48.266;14.188;2023-04-01T23:35:57;96904.78;;;9.33;72.60
68476;BME280;55464;48.266;14.188;2023-04-01T23:38:42;96908.94;;;9.27;72.84
68476;BME280;55464;48.266;14.188;2023-04-01T23:41:29;96908.94;;;9.27;73.15
68476;BME280;55464;48.266;14.188;2023-04-01T23:44:00;96903.44;;;9.27;73.03
68476;BME280;55464;48.266;14.188;2023-04-01T23:46:29;96907.28;;;9.22;72.96
68476;BME280;55464;48.266;14.188;2023-04-01T23:48:55;96914.78;;;9.25;73.34